sensor_id;sensor_type;location;lat;lon;timestamp;temperature;humidity
42835;DHT22;29335;50.526;30.458;2022-09-09T00:00:33;10.50;90.00
42835;DHT22;29335;50.526;30.458;2022-09-09T00:03:16;10.60;90.20
42835;DHT22;29335;50.526;30.458;2022-09-09T00:06:13;10.60;90.30
42835;DHT22;29335;50.526;30.458;2022-09-09T00:11:26;10.40;90.80
42835;DHT22;29335;50.526;30.458;2022-09-09T00:13:54;10.40;90.80
42835;DHT22;29335;50.526;30.458;2022-09-09T00:16:25;10.50;90.70
42835;DHT22;29335;50.526;30.458;2022-09-09T00:19:06;10.40;90.90
42835;DHT22;29335;50.526;30.458;2022-09-09T00:21:47;10.40;91.20
42835;DHT22;29335;50.526;30.458;2022-09-09T00:24:38;10.20;91.40
42835;DHT22;29335;50.526;30.458;2022-09-09T00:30:13;10.10;91.70
42835;DHT22;29335;50.526;30.458;2022-09-09T00:32:39;10.20;91.60
42835;DHT22;29335;50.526;30.458;2022-09-09T00:35:24;10.20;91.40
42835;DHT22;29335;50.526;30.458;2022-09-09T00:37:53;10.20;91.40
42835;DHT22;29335;50.526;30.458;2022-09-09T00:40:34;10.20;91.50
42835;DHT22;29335;50.526;30.458;2022-09-09T00:43:08;10.10;91.90
42835;DHT22;29335;50.526;30.458;2022-09-09T00:48:53;10.00;92.00
42835;DHT22;29335;50.526;30.458;2022-09-09T00:51:25;10.00;92.20
42835;DHT22;29335;50.526;30.458;2022-09-09T00:56:23;10.00;92.30
42835;DHT22;29335;50.526;30.458;2022-09-09T00:59:03;9.90;92.50
42835;DHT22;29335;50.526;30.458;2022-09-09T01:01:33;9.80;92.70
42835;DHT22;29335;50.526;30.458;2022-09-09T01:03:58;9.80;92.70
42835;DHT22;29335;50.526;30.458;2022-09-09T01:06:31;9.90;92.70
42835;DHT22;29335;50.526;30.458;2022-09-09T01:11:55;9.80;92.80
42835;DHT22;29335;50.526;30.458;2022-09-09T01:17:11;9.70;92.90
42835;DHT22;29335;50.526;30.458;2022-09-09T01:25:13;9.70;92.90
42835;DHT22;29335;50.526;30.458;2022-09-09T01:27:45;9.70;93.00
42835;DHT22;29335;50.526;30.458;2022-09-09T01:30:14;9.60;93.00
42835;DHT22;29335;50.526;30.458;2022-09-09T01:35:20;9.60;93.20
42835;DHT22;29335;50.526;30.458;2022-09-09T01:37:47;9.60;93.20
42835;DHT22;29335;50.526;30.458;2022-09-09T01:40:12;10.10;93.50
42835;DHT22;29335;50.526;30.458;2022-09-09T01:42:38;9.50;93.50
42835;DHT22;29335;50.526;30.458;2022-09-09T01:45:04;9.60;93.50
42835;DHT22;29335;50.526;30.458;2022-09-09T01:47:30;9.50;93.50
42835;DHT22;29335;50.526;30.458;2022-09-09T01:49:55;9.50;93.70
42835;DHT22;29335;50.526;30.458;2022-09-09T01:52:21;10.00;94.00
42835;DHT22;29335;50.526;30.458;2022-09-09T01:54:47;9.40;94.00
42835;DHT22;29335;50.526;30.458;2022-09-09T01:57:27;9.30;94.10
42835;DHT22;29335;50.526;30.458;2022-09-09T02:02:39;9.30;94.30
42835;DHT22;29335;50.526;30.458;2022-09-09T02:07:50;9.30;94.70
42835;DHT22;29335;50.526;30.458;2022-09-09T02:10:24;9.30;94.90
42835;DHT22;29335;50.526;30.458;2022-09-09T02:12:56;9.20;95.10
42835;DHT22;29335;50.526;30.458;2022-09-09T02:15:52;9.20;95.30
42835;DHT22;29335;50.526;30.458;2022-09-09T02:18:40;9.20;95.40
42835;DHT22;29335;50.526;30.458;2022-09-09T02:21:09;9.20;95.50
42835;DHT22;29335;50.526;30.458;2022-09-09T02:23:38;9.20;95.70
42835;DHT22;29335;50.526;30.458;2022-09-09T02:26:05;9.20;95.70
42835;DHT22;29335;50.526;30.458;2022-09-09T02:28:34;9.10;95.80
42835;DHT22;29335;50.526;30.458;2022-09-09T02:31:02;9.20;96.00
42835;DHT22;29335;50.526;30.458;2022-09-09T02:33:32;9.20;96.10
42835;DHT22;29335;50.526;30.458;2022-09-09T02:36:01;9.10;96.20
42835;DHT22;29335;50.526;30.458;2022-09-09T02:38:32;9.10;96.40
42835;DHT22;29335;50.526;30.458;2022-09-09T02:41:00;9.10;96.50
42835;DHT22;29335;50.526;30.458;2022-09-09T02:43:31;9.10;96.70
42835;DHT22;29335;50.526;30.458;2022-09-09T02:46:06;9.20;96.80
42835;DHT22;29335;50.526;30.458;2022-09-09T02:48:55;9.20;96.80
42835;DHT22;29335;50.526;30.458;2022-09-09T02:51:39;9.20;97.00
42835;DHT22;29335;50.526;30.458;2022-09-09T02:56:52;9.10;97.00
42835;DHT22;29335;50.526;30.458;2022-09-09T02:59:20;9.10;97.10
42835;DHT22;29335;50.526;30.458;2022-09-09T03:01:46;9.10;97.20
42835;DHT22;29335;50.526;30.458;2022-09-09T03:04:12;9.00;97.30
42835;DHT22;29335;50.526;30.458;2022-09-09T03:06:38;9.00;97.30
42835;DHT22;29335;50.526;30.458;2022-09-09T03:09:03;8.90;97.40
42835;DHT22;29335;50.526;30.458;2022-09-09T03:11:29;8.80;97.60
42835;DHT22;29335;50.526;30.458;2022-09-09T03:13:55;8.80;97.70
42835;DHT22;29335;50.526;30.458;2022-09-09T03:16:22;8.80;97.90
42835;DHT22;29335;50.526;30.458;2022-09-09T03:18:47;8.80;97.90
42835;DHT22;29335;50.526;30.458;2022-09-09T03:21:13;8.70;98.10
42835;DHT22;29335;50.526;30.458;2022-09-09T03:23:39;8.90;98.00
42835;DHT22;29335;50.526;30.458;2022-09-09T03:26:05;8.90;98.10
42835;DHT22;29335;50.526;30.458;2022-09-09T03:28:30;8.90;98.30
42835;DHT22;29335;50.526;30.458;2022-09-09T03:31:00;8.90;98.50
42835;DHT22;29335;50.526;30.458;2022-09-09T03:33:26;8.90;98.60
42835;DHT22;29335;50.526;30.458;2022-09-09T03:35:53;8.90;98.80
42835;DHT22;29335;50.526;30.458;2022-09-09T03:38:18;9.00;98.90
42835;DHT22;29335;50.526;30.458;2022-09-09T03:40:55;9.10;99.00
42835;DHT22;29335;50.526;30.458;2022-09-09T03:43:26;9.20;98.90
42835;DHT22;29335;50.526;30.458;2022-09-09T03:45:52;9.40;98.70
42835;DHT22;29335;50.526;30.458;2022-09-09T03:48:19;9.50;98.60
42835;DHT22;29335;50.526;30.458;2022-09-09T03:50:52;9.60;98.30
42835;DHT22;29335;50.526;30.458;2022-09-09T03:53:20;9.70;97.90
42835;DHT22;29335;50.526;30.458;2022-09-09T03:55:47;9.60;97.70
42835;DHT22;29335;50.526;30.458;2022-09-09T03:58:14;9.60;97.60
42835;DHT22;29335;50.526;30.458;2022-09-09T04:00:40;9.70;97.50
42835;DHT22;29335;50.526;30.458;2022-09-09T04:03:08;9.30;97.60
42835;DHT22;29335;50.526;30.458;2022-09-09T04:05:34;9.90;97.30
42835;DHT22;29335;50.526;30.458;2022-09-09T04:08:00;9.90;96.90
42835;DHT22;29335;50.526;30.458;2022-09-09T04:10:25;9.90;96.60
42835;DHT22;29335;50.526;30.458;2022-09-09T04:12:52;9.80;96.60
42835;DHT22;29335;50.526;30.458;2022-09-09T04:15:18;9.80;96.90
42835;DHT22;29335;50.526;30.458;2022-09-09T04:17:44;9.90;97.00
42835;DHT22;29335;50.526;30.458;2022-09-09T04:20:09;10.00;96.90
42835;DHT22;29335;50.526;30.458;2022-09-09T04:22:36;10.00;96.60
42835;DHT22;29335;50.526;30.458;2022-09-09T04:25:05;10.00;96.50
42835;DHT22;29335;50.526;30.458;2022-09-09T04:27:31;9.90;96.50
42835;DHT22;29335;50.526;30.458;2022-09-09T04:29:57;9.80;96.60
42835;DHT22;29335;50.526;30.458;2022-09-09T04:32:22;9.80;96.60
42835;DHT22;29335;50.526;30.458;2022-09-09T04:34:48;9.80;96.60
42835;DHT22;29335;50.526;30.458;2022-09-09T04:37:14;9.70;96.60
42835;DHT22;29335;50.526;30.458;2022-09-09T04:39:40;9.90;96.70
42835;DHT22;29335;50.526;30.458;2022-09-09T04:42:05;9.80;96.40
42835;DHT22;29335;50.526;30.458;2022-09-09T04:44:31;9.80;96.40
42835;DHT22;29335;50.526;30.458;2022-09-09T04:46:56;9.80;96.30
42835;DHT22;29335;50.526;30.458;2022-09-09T04:49:23;9.80;96.30
42835;DHT22;29335;50.526;30.458;2022-09-09T04:51:49;9.90;96.60
42835;DHT22;29335;50.526;30.458;2022-09-09T04:54:14;10.10;96.10
42835;DHT22;29335;50.526;30.458;2022-09-09T04:56:40;10.30;95.70
42835;DHT22;29335;50.526;30.458;2022-09-09T04:59:07;10.50;95.40
42835;DHT22;29335;50.526;30.458;2022-09-09T05:01:33;10.70;95.00
42835;DHT22;29335;50.526;30.458;2022-09-09T05:03:59;11.00;94.60
42835;DHT22;29335;50.526;30.458;2022-09-09T05:06:24;11.20;94.10
42835;DHT22;29335;50.526;30.458;2022-09-09T05:08:50;11.50;93.70
42835;DHT22;29335;50.526;30.458;2022-09-09T05:13:44;11.60;93.10
42835;DHT22;29335;50.526;30.458;2022-09-09T05:16:10;11.70;93.10
42835;DHT22;29335;50.526;30.458;2022-09-09T05:18:37;13.50;93.30
42835;DHT22;29335;50.526;30.458;2022-09-09T05:21:03;12.00;92.40
42835;DHT22;29335;50.526;30.458;2022-09-09T05:23:28;12.00;92.30
42835;DHT22;29335;50.526;30.458;2022-09-09T05:25:57;12.00;92.50
42835;DHT22;29335;50.526;30.458;2022-09-09T05:28:24;12.00;92.30
42835;DHT22;29335;50.526;30.458;2022-09-09T05:31:02;12.00;92.30
42835;DHT22;29335;50.526;30.458;2022-09-09T05:33:30;12.00;92.20
42835;DHT22;29335;50.526;30.458;2022-09-09T05:36:02;11.70;92.30
42835;DHT22;29335;50.526;30.458;2022-09-09T05:38:30;11.50;92.60
42835;DHT22;29335;50.526;30.458;2022-09-09T05:40:55;11.30;92.90
42835;DHT22;29335;50.526;30.458;2022-09-09T05:43:22;11.20;93.40
42835;DHT22;29335;50.526;30.458;2022-09-09T05:45:57;11.10;93.70
42835;DHT22;29335;50.526;30.458;2022-09-09T05:48:23;11.00;93.90
42835;DHT22;29335;50.526;30.458;2022-09-09T05:50:53;11.10;94.00
42835;DHT22;29335;50.526;30.458;2022-09-09T05:53:19;11.10;93.90
42835;DHT22;29335;50.526;30.458;2022-09-09T05:55:45;11.30;94.10
42835;DHT22;29335;50.526;30.458;2022-09-09T05:58:11;13.10;94.50
42835;DHT22;29335;50.526;30.458;2022-09-09T06:00:36;11.20;93.50
42835;DHT22;29335;50.526;30.458;2022-09-09T06:03:03;11.20;93.50
42835;DHT22;29335;50.526;30.458;2022-09-09T06:05:29;11.30;93.70
42835;DHT22;29335;50.526;30.458;2022-09-09T06:07:55;13.20;94.00
42835;DHT22;29335;50.526;30.458;2022-09-09T06:10:22;13.70;94.00
42835;DHT22;29335;50.526;30.458;2022-09-09T06:12:48;11.30;93.20
42835;DHT22;29335;50.526;30.458;2022-09-09T06:15:13;11.40;93.00
42835;DHT22;29335;50.526;30.458;2022-09-09T06:17:39;11.40;92.80
42835;DHT22;29335;50.526;30.458;2022-09-09T06:20:05;11.40;93.00
42835;DHT22;29335;50.526;30.458;2022-09-09T06:22:31;11.50;93.00
42835;DHT22;29335;50.526;30.458;2022-09-09T06:24:56;11.60;92.90
42835;DHT22;29335;50.526;30.458;2022-09-09T06:27:22;11.60;92.70
42835;DHT22;29335;50.526;30.458;2022-09-09T06:29:47;11.70;92.60
42835;DHT22;29335;50.526;30.458;2022-09-09T06:32:13;11.80;92.60
42835;DHT22;29335;50.526;30.458;2022-09-09T06:34:39;11.90;92.50
42835;DHT22;29335;50.526;30.458;2022-09-09T06:37:05;11.90;92.10
42835;DHT22;29335;50.526;30.458;2022-09-09T06:39:31;12.00;92.10
42835;DHT22;29335;50.526;30.458;2022-09-09T06:41:57;12.10;91.80
42835;DHT22;29335;50.526;30.458;2022-09-09T06:44:24;12.10;91.60
42835;DHT22;29335;50.526;30.458;2022-09-09T06:46:52;12.20;91.30
42835;DHT22;29335;50.526;30.458;2022-09-09T06:49:17;12.40;91.40
42835;DHT22;29335;50.526;30.458;2022-09-09T06:51:43;12.40;91.50
42835;DHT22;29335;50.526;30.458;2022-09-09T06:54:10;14.80;91.80
42835;DHT22;29335;50.526;30.458;2022-09-09T06:56:38;12.60;91.10
42835;DHT22;29335;50.526;30.458;2022-09-09T06:59:07;12.60;91.10
42835;DHT22;29335;50.526;30.458;2022-09-09T07:01:36;12.80;91.10
42835;DHT22;29335;50.526;30.458;2022-09-09T07:04:03;12.80;91.10
42835;DHT22;29335;50.526;30.458;2022-09-09T07:06:31;12.90;91.00
42835;DHT22;29335;50.526;30.458;2022-09-09T07:08:59;13.10;90.70
42835;DHT22;29335;50.526;30.458;2022-09-09T07:11:30;13.50;90.60
42835;DHT22;29335;50.526;30.458;2022-09-09T07:14:00;13.30;90.40
42835;DHT22;29335;50.526;30.458;2022-09-09T07:16:26;13.20;90.20
42835;DHT22;29335;50.526;30.458;2022-09-09T07:18:53;13.60;90.20
42835;DHT22;29335;50.526;30.458;2022-09-09T07:21:24;13.40;90.00
42835;DHT22;29335;50.526;30.458;2022-09-09T07:23:50;13.50;89.70
42835;DHT22;29335;50.526;30.458;2022-09-09T07:26:18;15.00;90.00
42835;DHT22;29335;50.526;30.458;2022-09-09T07:28:47;14.20;89.10
42835;DHT22;29335;50.526;30.458;2022-09-09T07:31:15;14.90;89.10
42835;DHT22;29335;50.526;30.458;2022-09-09T07:33:43;13.90;87.30
42835;DHT22;29335;50.526;30.458;2022-09-09T07:36:34;14.00;86.50
42835;DHT22;29335;50.526;30.458;2022-09-09T07:39:05;14.10;83.70
42835;DHT22;29335;50.526;30.458;2022-09-09T07:41:33;14.10;83.10
42835;DHT22;29335;50.526;30.458;2022-09-09T07:44:03;14.20;82.10
42835;DHT22;29335;50.526;30.458;2022-09-09T07:46:29;14.20;81.40
42835;DHT22;29335;50.526;30.458;2022-09-09T07:48:56;14.60;81.10
42835;DHT22;29335;50.526;30.458;2022-09-09T07:51:28;14.20;81.90
42835;DHT22;29335;50.526;30.458;2022-09-09T07:53:57;14.30;81.80
42835;DHT22;29335;50.526;30.458;2022-09-09T07:56:24;14.30;81.20
42835;DHT22;29335;50.526;30.458;2022-09-09T07:58:51;14.30;80.30
42835;DHT22;29335;50.526;30.458;2022-09-09T08:01:27;14.20;79.70
42835;DHT22;29335;50.526;30.458;2022-09-09T08:03:58;14.30;79.90
42835;DHT22;29335;50.526;30.458;2022-09-09T08:06:25;14.20;79.00
42835;DHT22;29335;50.526;30.458;2022-09-09T08:08:52;14.30;79.00
42835;DHT22;29335;50.526;30.458;2022-09-09T08:11:18;14.40;79.30
42835;DHT22;29335;50.526;30.458;2022-09-09T08:13:44;14.60;79.20
42835;DHT22;29335;50.526;30.458;2022-09-09T08:16:14;14.50;79.10
42835;DHT22;29335;50.526;30.458;2022-09-09T08:18:40;15.10;79.00
42835;DHT22;29335;50.526;30.458;2022-09-09T08:21:27;14.80;78.60
42835;DHT22;29335;50.526;30.458;2022-09-09T08:23:57;14.70;77.30
42835;DHT22;29335;50.526;30.458;2022-09-09T08:26:25;14.70;76.80
42835;DHT22;29335;50.526;30.458;2022-09-09T08:28:54;14.80;76.80
42835;DHT22;29335;50.526;30.458;2022-09-09T08:31:26;15.00;76.30
42835;DHT22;29335;50.526;30.458;2022-09-09T08:33:53;15.20;75.00
42835;DHT22;29335;50.526;30.458;2022-09-09T08:36:22;15.30;75.00
42835;DHT22;29335;50.526;30.458;2022-09-09T08:38:49;15.50;75.10
42835;DHT22;29335;50.526;30.458;2022-09-09T08:44:01;15.60;74.50
42835;DHT22;29335;50.526;30.458;2022-09-09T08:51:56;15.80;73.20
42835;DHT22;29335;50.526;30.458;2022-09-09T08:54:23;15.70;71.60
42835;DHT22;29335;50.526;30.458;2022-09-09T08:56:49;15.70;71.10
42835;DHT22;29335;50.526;30.458;2022-09-09T08:59:17;15.80;69.70
42835;DHT22;29335;50.526;30.458;2022-09-09T09:01:55;16.00;70.40
42835;DHT22;29335;50.526;30.458;2022-09-09T09:07:43;16.00;68.30
42835;DHT22;29335;50.526;30.458;2022-09-09T09:11:02;16.00;68.70
42835;DHT22;29335;50.526;30.458;2022-09-09T09:13:58;16.00;68.00
42835;DHT22;29335;50.526;30.458;2022-09-09T09:16:36;16.10;68.10
42835;DHT22;29335;50.526;30.458;2022-09-09T09:19:04;16.20;68.30
42835;DHT22;29335;50.526;30.458;2022-09-09T09:21:52;16.20;68.70
42835;DHT22;29335;50.526;30.458;2022-09-09T09:24:20;16.30;67.60
42835;DHT22;29335;50.526;30.458;2022-09-09T09:26:47;16.60;67.40
42835;DHT22;29335;50.526;30.458;2022-09-09T09:29:15;16.30;66.70
42835;DHT22;29335;50.526;30.458;2022-09-09T09:31:54;16.50;67.00
42835;DHT22;29335;50.526;30.458;2022-09-09T09:34:21;16.60;67.90
42835;DHT22;29335;50.526;30.458;2022-09-09T09:36:54;16.60;68.10
42835;DHT22;29335;50.526;30.458;2022-09-09T09:41:53;16.70;67.20
42835;DHT22;29335;50.526;30.458;2022-09-09T09:44:28;16.80;66.60
42835;DHT22;29335;50.526;30.458;2022-09-09T09:49:32;16.80;67.40
42835;DHT22;29335;50.526;30.458;2022-09-09T09:52:02;16.70;67.40
42835;DHT22;29335;50.526;30.458;2022-09-09T09:54:31;16.60;67.70
42835;DHT22;29335;50.526;30.458;2022-09-09T09:57:11;16.70;67.70
42835;DHT22;29335;50.526;30.458;2022-09-09T09:59:38;16.80;66.90
42835;DHT22;29335;50.526;30.458;2022-09-09T10:04:39;16.70;66.20
42835;DHT22;29335;50.526;30.458;2022-09-09T10:07:12;17.20;66.90
42835;DHT22;29335;50.526;30.458;2022-09-09T10:09:38;16.90;65.60
42835;DHT22;29335;50.526;30.458;2022-09-09T10:12:26;17.20;65.40
42835;DHT22;29335;50.526;30.458;2022-09-09T10:17:53;18.90;64.80
42835;DHT22;29335;50.526;30.458;2022-09-09T10:20:35;17.40;63.40
42835;DHT22;29335;50.526;30.458;2022-09-09T10:26:12;17.40;61.80
42835;DHT22;29335;50.526;30.458;2022-09-09T10:40:33;18.10;60.90
42835;DHT22;29335;50.526;30.458;2022-09-09T10:43:07;18.30;60.60
42835;DHT22;29335;50.526;30.458;2022-09-09T10:54:45;18.50;59.00
42835;DHT22;29335;50.526;30.458;2022-09-09T10:57:31;18.50;58.60
42835;DHT22;29335;50.526;30.458;2022-09-09T11:00:06;18.40;59.00
42835;DHT22;29335;50.526;30.458;2022-09-09T11:02:38;18.40;59.30
42835;DHT22;29335;50.526;30.458;2022-09-09T11:05:20;18.30;59.30
42835;DHT22;29335;50.526;30.458;2022-09-09T11:08:08;18.20;59.70
42835;DHT22;29335;50.526;30.458;2022-09-09T11:10:44;18.20;60.40
42835;DHT22;29335;50.526;30.458;2022-09-09T11:13:28;18.30;60.40
42835;DHT22;29335;50.526;30.458;2022-09-09T11:18:57;18.50;60.50
42835;DHT22;29335;50.526;30.458;2022-09-09T11:21:38;19.90;61.70
42835;DHT22;29335;50.526;30.458;2022-09-09T11:24:12;18.40;59.80
42835;DHT22;29335;50.526;30.458;2022-09-09T11:26:45;18.60;60.20
42835;DHT22;29335;50.526;30.458;2022-09-09T11:29:28;18.30;60.30
42835;DHT22;29335;50.526;30.458;2022-09-09T11:35:27;18.30;60.60
42835;DHT22;29335;50.526;30.458;2022-09-09T11:41:08;18.20;60.70
42835;DHT22;29335;50.526;30.458;2022-09-09T11:43:48;18.30;61.10
42835;DHT22;29335;50.526;30.458;2022-09-09T11:46:16;18.50;61.30
42835;DHT22;29335;50.526;30.458;2022-09-09T11:48:59;18.50;61.50
42835;DHT22;29335;50.526;30.458;2022-09-09T11:51:26;18.60;60.90
42835;DHT22;29335;50.526;30.458;2022-09-09T11:54:01;19.20;60.50
42835;DHT22;29335;50.526;30.458;2022-09-09T12:02:18;18.30;60.10
42835;DHT22;29335;50.526;30.458;2022-09-09T12:05:04;18.40;59.90
42835;DHT22;29335;50.526;30.458;2022-09-09T12:07:39;18.40;59.70
42835;DHT22;29335;50.526;30.458;2022-09-09T12:12:37;18.30;60.20
42835;DHT22;29335;50.526;30.458;2022-09-09T12:17:41;18.60;59.90
42835;DHT22;29335;50.526;30.458;2022-09-09T12:20:33;18.30;59.50
42835;DHT22;29335;50.526;30.458;2022-09-09T12:33:44;18.40;59.90
42835;DHT22;29335;50.526;30.458;2022-09-09T12:36:18;19.40;60.40
42835;DHT22;29335;50.526;30.458;2022-09-09T12:38:45;18.50;58.40
42835;DHT22;29335;50.526;30.458;2022-09-09T12:41:30;18.30;58.00
42835;DHT22;29335;50.526;30.458;2022-09-09T12:44:08;19.30;59.00
42835;DHT22;29335;50.526;30.458;2022-09-09T12:46:45;18.40;58.00
42835;DHT22;29335;50.526;30.458;2022-09-09T12:49:36;19.10;58.50
42835;DHT22;29335;50.526;30.458;2022-09-09T12:52:23;18.50;58.20
42835;DHT22;29335;50.526;30.458;2022-09-09T12:54:49;18.40;58.30
42835;DHT22;29335;50.526;30.458;2022-09-09T12:57:19;19.60;59.00
42835;DHT22;29335;50.526;30.458;2022-09-09T12:59:47;18.70;58.50
42835;DHT22;29335;50.526;30.458;2022-09-09T13:02:19;18.40;58.50
42835;DHT22;29335;50.526;30.458;2022-09-09T13:04:45;18.40;58.60
42835;DHT22;29335;50.526;30.458;2022-09-09T13:07:12;19.10;59.10
42835;DHT22;29335;50.526;30.458;2022-09-09T13:09:39;18.10;58.50
42835;DHT22;29335;50.526;30.458;2022-09-09T13:12:06;19.80;59.70
42835;DHT22;29335;50.526;30.458;2022-09-09T13:14:35;18.20;58.70
42835;DHT22;29335;50.526;30.458;2022-09-09T13:17:05;18.10;58.20
42835;DHT22;29335;50.526;30.458;2022-09-09T13:19:35;18.10;58.50
42835;DHT22;29335;50.526;30.458;2022-09-09T13:22:12;18.20;58.50
42835;DHT22;29335;50.526;30.458;2022-09-09T13:24:38;18.70;58.90
42835;DHT22;29335;50.526;30.458;2022-09-09T13:27:26;17.80;58.40
42835;DHT22;29335;50.526;30.458;2022-09-09T13:29:53;17.90;58.60
42835;DHT22;29335;50.526;30.458;2022-09-09T13:32:21;17.80;59.00
42835;DHT22;29335;50.526;30.458;2022-09-09T13:34:55;18.80;59.50
42835;DHT22;29335;50.526;30.458;2022-09-09T13:39:59;17.70;58.70
42835;DHT22;29335;50.526;30.458;2022-09-09T13:42:30;17.70;59.30
42835;DHT22;29335;50.526;30.458;2022-09-09T13:44:57;17.60;58.70
42835;DHT22;29335;50.526;30.458;2022-09-09T13:47:30;17.50;59.00
42835;DHT22;29335;50.526;30.458;2022-09-09T13:49:57;19.40;59.90
42835;DHT22;29335;50.526;30.458;2022-09-09T13:52:23;18.00;59.30
42835;DHT22;29335;50.526;30.458;2022-09-09T13:54:50;18.20;59.70
42835;DHT22;29335;50.526;30.458;2022-09-09T13:57:19;17.50;59.30
42835;DHT22;29335;50.526;30.458;2022-09-09T13:59:46;17.50;59.20
42835;DHT22;29335;50.526;30.458;2022-09-09T14:02:13;17.60;59.40
42835;DHT22;29335;50.526;30.458;2022-09-09T14:04:39;17.60;59.30
42835;DHT22;29335;50.526;30.458;2022-09-09T14:07:12;17.60;59.50
42835;DHT22;29335;50.526;30.458;2022-09-09T14:09:39;17.50;59.50
42835;DHT22;29335;50.526;30.458;2022-09-09T14:12:05;17.70;59.60
42835;DHT22;29335;50.526;30.458;2022-09-09T14:14:31;17.50;59.70
42835;DHT22;29335;50.526;30.458;2022-09-09T14:16:56;17.60;59.80
42835;DHT22;29335;50.526;30.458;2022-09-09T14:19:22;19.10;60.80
42835;DHT22;29335;50.526;30.458;2022-09-09T14:21:47;17.30;60.20
42835;DHT22;29335;50.526;30.458;2022-09-09T14:24:14;17.30;60.40
42835;DHT22;29335;50.526;30.458;2022-09-09T14:26:39;17.30;61.10
42835;DHT22;29335;50.526;30.458;2022-09-09T14:29:06;17.40;60.60
42835;DHT22;29335;50.526;30.458;2022-09-09T14:31:31;17.30;60.20
42835;DHT22;29335;50.526;30.458;2022-09-09T14:33:58;17.30;60.20
42835;DHT22;29335;50.526;30.458;2022-09-09T14:36:24;17.30;60.00
42835;DHT22;29335;50.526;30.458;2022-09-09T14:38:50;17.30;60.20
42835;DHT22;29335;50.526;30.458;2022-09-09T14:41:17;18.50;61.00
42835;DHT22;29335;50.526;30.458;2022-09-09T14:43:44;17.30;60.10
42835;DHT22;29335;50.526;30.458;2022-09-09T14:46:15;17.60;60.30
42835;DHT22;29335;50.526;30.458;2022-09-09T14:48:41;17.60;60.40
42835;DHT22;29335;50.526;30.458;2022-09-09T14:51:13;17.20;60.30
42835;DHT22;29335;50.526;30.458;2022-09-09T14:53:41;17.20;60.40
42835;DHT22;29335;50.526;30.458;2022-09-09T14:56:13;19.00;61.70
42835;DHT22;29335;50.526;30.458;2022-09-09T14:58:39;17.20;60.80
42835;DHT22;29335;50.526;30.458;2022-09-09T15:01:13;19.40;62.50
42835;DHT22;29335;50.526;30.458;2022-09-09T15:03:40;17.10;61.50
42835;DHT22;29335;50.526;30.458;2022-09-09T15:06:11;17.10;61.70
42835;DHT22;29335;50.526;30.458;2022-09-09T15:08:38;17.10;61.90
42835;DHT22;29335;50.526;30.458;2022-09-09T15:11:05;17.10;62.20
42835;DHT22;29335;50.526;30.458;2022-09-09T15:13:36;17.10;62.20
42835;DHT22;29335;50.526;30.458;2022-09-09T15:16:18;17.10;62.30
42835;DHT22;29335;50.526;30.458;2022-09-09T15:18:45;17.10;62.40
42835;DHT22;29335;50.526;30.458;2022-09-09T15:21:16;17.00;62.50
42835;DHT22;29335;50.526;30.458;2022-09-09T15:23:43;17.10;62.50
42835;DHT22;29335;50.526;30.458;2022-09-09T15:26:10;17.00;62.40
42835;DHT22;29335;50.526;30.458;2022-09-09T15:28:37;17.30;62.70
42835;DHT22;29335;50.526;30.458;2022-09-09T15:33:37;17.10;63.10
42835;DHT22;29335;50.526;30.458;2022-09-09T15:36:23;19.50;64.60
42835;DHT22;29335;50.526;30.458;2022-09-09T15:38:50;17.00;63.20
42835;DHT22;29335;50.526;30.458;2022-09-09T15:41:17;18.60;64.30
42835;DHT22;29335;50.526;30.458;2022-09-09T15:43:47;17.00;63.70
42835;DHT22;29335;50.526;30.458;2022-09-09T15:48:58;16.80;63.50
42835;DHT22;29335;50.526;30.458;2022-09-09T15:51:27;17.00;63.60
42835;DHT22;29335;50.526;30.458;2022-09-09T15:53:55;16.90;63.40
42835;DHT22;29335;50.526;30.458;2022-09-09T15:56:21;16.90;63.60
42835;DHT22;29335;50.526;30.458;2022-09-09T15:58:47;16.80;63.60
42835;DHT22;29335;50.526;30.458;2022-09-09T16:01:13;16.90;63.60
42835;DHT22;29335;50.526;30.458;2022-09-09T16:03:40;16.80;63.60
42835;DHT22;29335;50.526;30.458;2022-09-09T16:06:18;17.10;64.00
42835;DHT22;29335;50.526;30.458;2022-09-09T16:08:45;16.70;63.90
42835;DHT22;29335;50.526;30.458;2022-09-09T16:11:14;16.80;63.90
42835;DHT22;29335;50.526;30.458;2022-09-09T16:13:42;16.80;64.00
42835;DHT22;29335;50.526;30.458;2022-09-09T16:16:10;17.10;64.50
42835;DHT22;29335;50.526;30.458;2022-09-09T16:18:37;18.70;65.50
42835;DHT22;29335;50.526;30.458;2022-09-09T16:21:04;17.10;64.50
42835;DHT22;29335;50.526;30.458;2022-09-09T16:23:31;16.70;64.60
42835;DHT22;29335;50.526;30.458;2022-09-09T16:25:57;16.70;65.20
42835;DHT22;29335;50.526;30.458;2022-09-09T16:28:23;17.20;65.60
42835;DHT22;29335;50.526;30.458;2022-09-09T16:30:49;16.60;65.80
42835;DHT22;29335;50.526;30.458;2022-09-09T16:33:16;16.60;66.30
42835;DHT22;29335;50.526;30.458;2022-09-09T16:35:42;16.50;66.40
42835;DHT22;29335;50.526;30.458;2022-09-09T16:38:08;17.90;67.50
42835;DHT22;29335;50.526;30.458;2022-09-09T16:40:34;16.50;67.20
42835;DHT22;29335;50.526;30.458;2022-09-09T16:43:00;16.80;67.00
42835;DHT22;29335;50.526;30.458;2022-09-09T16:45:26;16.40;66.90
42835;DHT22;29335;50.526;30.458;2022-09-09T16:47:53;16.40;66.90
42835;DHT22;29335;50.526;30.458;2022-09-09T16:50:19;16.40;66.80
42835;DHT22;29335;50.526;30.458;2022-09-09T16:52:45;16.40;67.10
42835;DHT22;29335;50.526;30.458;2022-09-09T16:55:10;16.30;67.10
42835;DHT22;29335;50.526;30.458;2022-09-09T16:57:36;18.00;68.30
42835;DHT22;29335;50.526;30.458;2022-09-09T17:00:03;16.30;67.40
42835;DHT22;29335;50.526;30.458;2022-09-09T17:02:31;16.30;67.70
42835;DHT22;29335;50.526;30.458;2022-09-09T17:04:56;18.50;69.00
42835;DHT22;29335;50.526;30.458;2022-09-09T17:07:22;16.50;68.10
42835;DHT22;29335;50.526;30.458;2022-09-09T17:09:48;17.50;68.90
42835;DHT22;29335;50.526;30.458;2022-09-09T17:12:14;16.20;68.30
42835;DHT22;29335;50.526;30.458;2022-09-09T17:14:43;16.10;68.30
42835;DHT22;29335;50.526;30.458;2022-09-09T17:17:11;16.10;68.50
42835;DHT22;29335;50.526;30.458;2022-09-09T17:19:36;16.00;69.30
42835;DHT22;29335;50.526;30.458;2022-09-09T17:22:02;16.00;69.50
42835;DHT22;29335;50.526;30.458;2022-09-09T17:24:27;16.00;69.40
42835;DHT22;29335;50.526;30.458;2022-09-09T17:26:54;15.90;69.50
42835;DHT22;29335;50.526;30.458;2022-09-09T17:29:21;15.90;69.70
42835;DHT22;29335;50.526;30.458;2022-09-09T17:31:46;15.80;69.50
42835;DHT22;29335;50.526;30.458;2022-09-09T17:34:12;15.90;69.50
42835;DHT22;29335;50.526;30.458;2022-09-09T17:36:38;15.80;69.50